sensor_id;sensor_type;location;lat;lon;timestamp;P1;durP1;ratioP1;P2;durP2;ratioP2
36385;SDS011;24125;47.482;8.770;2023-02-12T00:01:35;19.88;;;9.48;;
36385;SDS011;24125;47.482;8.770;2023-02-12T00:04:08;18.95;;;9.68;;
36385;SDS011;24125;47.482;8.770;2023-02-12T00:06:41;17.40;;;8.93;;
36385;SDS011;24125;47.482;8.770;2023-02-12T00:09:14;19.63;;;9.43;;
36385;SDS011;24125;47.482;8.770;2023-02-12T00:11:47;14.98;;;7.90;;
36385;SDS011;24125;47.482;8.770;2023-02-12T00:14:21;18.40;;;9.77;;
36385;SDS011;24125;47.482;8.770;2023-02-12T00:16:54;18.13;;;8.73;;
36385;SDS011;24125;47.482;8.770;2023-02-12T00:19:27;21.45;;;9.30;;
36385;SDS011;24125;47.482;8.770;2023-02-12T00:22:00;16.80;;;9.00;;
36385;SDS011;24125;47.482;8.770;2023-02-12T00:24:33;20.77;;;9.73;;
36385;SDS011;24125;47.482;8.770;2023-02-12T00:27:05;18.92;;;9.32;;
36385;SDS011;24125;47.482;8.770;2023-02-12T00:29:40;20.55;;;9.63;;
36385;SDS011;24125;47.482;8.770;2023-02-12T00:32:13;16.20;;;8.23;;
36385;SDS011;24125;47.482;8.770;2023-02-12T00:34:49;19.95;;;9.55;;
36385;SDS011;24125;47.482;8.770;2023-02-12T00:37:22;21.48;;;9.02;;
36385;SDS011;24125;47.482;8.770;2023-02-12T00:39:55;19.05;;;9.85;;
36385;SDS011;24125;47.482;8.770;2023-02-12T00:42:28;18.95;;;9.10;;
36385;SDS011;24125;47.482;8.770;2023-02-12T00:45:03;21.88;;;10.32;;
36385;SDS011;24125;47.482;8.770;2023-02-12T00:47:37;19.77;;;10.18;;
36385;SDS011;24125;47.482;8.770;2023-02-12T00:50:10;22.25;;;9.80;;
36385;SDS011;24125;47.482;8.770;2023-02-12T00:52:43;19.80;;;9.95;;
36385;SDS011;24125;47.482;8.770;2023-02-12T00:55:16;22.52;;;10.10;;
36385;SDS011;24125;47.482;8.770;2023-02-12T00:57:49;19.48;;;9.60;;
36385;SDS011;24125;47.482;8.770;2023-02-12T01:00:24;20.42;;;9.93;;
36385;SDS011;24125;47.482;8.770;2023-02-12T01:02:57;18.98;;;9.55;;
36385;SDS011;24125;47.482;8.770;2023-02-12T01:05:29;18.30;;;8.32;;
36385;SDS011;24125;47.482;8.770;2023-02-12T01:08:03;18.10;;;8.77;;
36385;SDS011;24125;47.482;8.770;2023-02-12T01:10:36;16.20;;;8.90;;
36385;SDS011;24125;47.482;8.770;2023-02-12T01:13:11;19.20;;;9.18;;
36385;SDS011;24125;47.482;8.770;2023-02-12T01:15:46;16.30;;;8.60;;
36385;SDS011;24125;47.482;8.770;2023-02-12T01:18:19;18.55;;;9.38;;
36385;SDS011;24125;47.482;8.770;2023-02-12T01:20:52;20.52;;;9.90;;
36385;SDS011;24125;47.482;8.770;2023-02-12T01:23:25;21.67;;;10.02;;
36385;SDS011;24125;47.482;8.770;2023-02-12T01:25:58;21.42;;;10.15;;
36385;SDS011;24125;47.482;8.770;2023-02-12T01:28:32;20.27;;;9.15;;
36385;SDS011;24125;47.482;8.770;2023-02-12T01:31:10;19.75;;;10.05;;
36385;SDS011;24125;47.482;8.770;2023-02-12T01:33:46;20.05;;;9.63;;
36385;SDS011;24125;47.482;8.770;2023-02-12T01:36:20;20.00;;;9.85;;
36385;SDS011;24125;47.482;8.770;2023-02-12T01:38:54;23.48;;;10.50;;
36385;SDS011;24125;47.482;8.770;2023-02-12T01:41:29;21.52;;;9.93;;
36385;SDS011;24125;47.482;8.770;2023-02-12T01:44:07;19.15;;;9.32;;
36385;SDS011;24125;47.482;8.770;2023-02-12T01:46:44;20.38;;;10.18;;
36385;SDS011;24125;47.482;8.770;2023-02-12T01:49:19;19.67;;;9.80;;
36385;SDS011;24125;47.482;8.770;2023-02-12T01:51:57;18.20;;;9.50;;
36385;SDS011;24125;47.482;8.770;2023-02-12T01:54:34;22.13;;;9.52;;
36385;SDS011;24125;47.482;8.770;2023-02-12T01:57:08;18.77;;;8.95;;
36385;SDS011;24125;47.482;8.770;2023-02-12T01:59:46;19.25;;;9.73;;
36385;SDS011;24125;47.482;8.770;2023-02-12T02:02:24;20.13;;;9.57;;
36385;SDS011;24125;47.482;8.770;2023-02-12T02:04:58;21.13;;;10.07;;
36385;SDS011;24125;47.482;8.770;2023-02-12T02:07:33;18.13;;;9.27;;
36385;SDS011;24125;47.482;8.770;2023-02-12T02:10:07;21.17;;;9.93;;
36385;SDS011;24125;47.482;8.770;2023-02-12T02:12:41;20.23;;;9.60;;
36385;SDS011;24125;47.482;8.770;2023-02-12T02:15:31;20.23;;;10.13;;
36385;SDS011;24125;47.482;8.770;2023-02-12T02:18:06;18.55;;;9.38;;
36385;SDS011;24125;47.482;8.770;2023-02-12T02:24:20;20.95;;;9.90;;
36385;SDS011;24125;47.482;8.770;2023-02-12T02:27:11;22.52;;;9.35;;
36385;SDS011;24125;47.482;8.770;2023-02-12T02:33:12;17.13;;;7.80;;
36385;SDS011;24125;47.482;8.770;2023-02-12T02:35:54;20.17;;;8.98;;
36385;SDS011;24125;47.482;8.770;2023-02-12T02:38:39;17.95;;;8.73;;
36385;SDS011;24125;47.482;8.770;2023-02-12T02:41:17;18.27;;;8.43;;
36385;SDS011;24125;47.482;8.770;2023-02-12T02:43:56;19.73;;;8.85;;
36385;SDS011;24125;47.482;8.770;2023-02-12T02:46:32;19.70;;;9.00;;
36385;SDS011;24125;47.482;8.770;2023-02-12T02:49:12;18.60;;;8.80;;
36385;SDS011;24125;47.482;8.770;2023-02-12T02:54:28;18.15;;;8.40;;
36385;SDS011;24125;47.482;8.770;2023-02-12T02:57:06;17.00;;;8.27;;
36385;SDS011;24125;47.482;8.770;2023-02-12T02:59:43;19.27;;;8.95;;
36385;SDS011;24125;47.482;8.770;2023-02-12T03:02:21;19.25;;;9.13;;
36385;SDS011;24125;47.482;8.770;2023-02-12T03:05:02;18.65;;;8.85;;
36385;SDS011;24125;47.482;8.770;2023-02-12T03:07:39;20.77;;;10.02;;
36385;SDS011;24125;47.482;8.770;2023-02-12T03:10:16;19.42;;;9.75;;
36385;SDS011;24125;47.482;8.770;2023-02-12T03:12:53;21.55;;;9.55;;
36385;SDS011;24125;47.482;8.770;2023-02-12T03:15:31;18.88;;;9.30;;
36385;SDS011;24125;47.482;8.770;2023-02-12T03:18:08;18.85;;;8.68;;
36385;SDS011;24125;47.482;8.770;2023-02-12T03:20:46;20.13;;;9.57;;
36385;SDS011;24125;47.482;8.770;2023-02-12T03:23:24;17.98;;;8.95;;
36385;SDS011;24125;47.482;8.770;2023-02-12T03:26:02;22.15;;;9.93;;
36385;SDS011;24125;47.482;8.770;2023-02-12T03:28:38;19.73;;;9.57;;
36385;SDS011;24125;47.482;8.770;2023-02-12T03:31:14;17.85;;;9.27;;
36385;SDS011;24125;47.482;8.770;2023-02-12T03:33:59;18.63;;;9.20;;
36385;SDS011;24125;47.482;8.770;2023-02-12T03:36:43;20.58;;;9.35;;
36385;SDS011;24125;47.482;8.770;2023-02-12T03:39:24;19.10;;;9.10;;
36385;SDS011;24125;47.482;8.770;2023-02-12T03:42:04;20.15;;;9.93;;
36385;SDS011;24125;47.482;8.770;2023-02-12T03:44:47;19.98;;;9.20;;
36385;SDS011;24125;47.482;8.770;2023-02-12T03:47:22;18.95;;;8.93;;
36385;SDS011;24125;47.482;8.770;2023-02-12T03:50:02;18.25;;;9.38;;
36385;SDS011;24125;47.482;8.770;2023-02-12T03:52:42;19.30;;;9.30;;
36385;SDS011;24125;47.482;8.770;2023-02-12T03:55:15;21.02;;;9.35;;
36385;SDS011;24125;47.482;8.770;2023-02-12T03:57:49;21.02;;;9.70;;
36385;SDS011;24125;47.482;8.770;2023-02-12T04:00:26;18.73;;;9.75;;
36385;SDS011;24125;47.482;8.770;2023-02-12T04:02:59;23.33;;;9.80;;
36385;SDS011;24125;47.482;8.770;2023-02-12T04:05:32;24.90;;;11.10;;
36385;SDS011;24125;47.482;8.770;2023-02-12T04:08:07;19.65;;;9.25;;
36385;SDS011;24125;47.482;8.770;2023-02-12T04:10:44;19.65;;;9.50;;
36385;SDS011;24125;47.482;8.770;2023-02-12T04:13:25;17.92;;;9.25;;
36385;SDS011;24125;47.482;8.770;2023-02-12T04:16:06;18.85;;;8.93;;
36385;SDS011;24125;47.482;8.770;2023-02-12T04:18:51;18.50;;;8.98;;
36385;SDS011;24125;47.482;8.770;2023-02-12T04:21:31;21.80;;;9.45;;
36385;SDS011;24125;47.482;8.770;2023-02-12T04:24:17;18.38;;;8.98;;
36385;SDS011;24125;47.482;8.770;2023-02-12T04:26:56;20.17;;;9.77;;
36385;SDS011;24125;47.482;8.770;2023-02-12T04:29:38;20.08;;;9.40;;
36385;SDS011;24125;47.482;8.770;2023-02-12T04:32:19;20.10;;;9.30;;
36385;SDS011;24125;47.482;8.770;2023-02-12T04:35:01;16.80;;;8.38;;
36385;SDS011;24125;47.482;8.770;2023-02-12T04:37:40;21.00;;;9.90;;
36385;SDS011;24125;47.482;8.770;2023-02-12T04:40:19;20.08;;;8.98;;
36385;SDS011;24125;47.482;8.770;2023-02-12T04:42:53;20.45;;;8.73;;
36385;SDS011;24125;47.482;8.770;2023-02-12T04:45:27;20.63;;;9.95;;
36385;SDS011;24125;47.482;8.770;2023-02-12T04:48:02;20.92;;;10.18;;
36385;SDS011;24125;47.482;8.770;2023-02-12T04:50:37;19.60;;;9.88;;
36385;SDS011;24125;47.482;8.770;2023-02-12T04:53:12;19.52;;;9.80;;
36385;SDS011;24125;47.482;8.770;2023-02-12T04:55:46;17.88;;;8.73;;
36385;SDS011;24125;47.482;8.770;2023-02-12T04:58:20;20.23;;;9.27;;
36385;SDS011;24125;47.482;8.770;2023-02-12T05:00:53;19.00;;;8.35;;
36385;SDS011;24125;47.482;8.770;2023-02-12T05:03:30;17.38;;;8.50;;
36385;SDS011;24125;47.482;8.770;2023-02-12T05:06:03;19.33;;;8.73;;
36385;SDS011;24125;47.482;8.770;2023-02-12T05:08:37;18.20;;;8.30;;
36385;SDS011;24125;47.482;8.770;2023-02-12T05:11:11;22.15;;;9.60;;
36385;SDS011;24125;47.482;8.770;2023-02-12T05:13:46;21.83;;;9.40;;
36385;SDS011;24125;47.482;8.770;2023-02-12T05:16:20;25.85;;;10.00;;
36385;SDS011;24125;47.482;8.770;2023-02-12T05:18:54;18.67;;;9.05;;
36385;SDS011;24125;47.482;8.770;2023-02-12T05:21:26;19.88;;;9.38;;
36385;SDS011;24125;47.482;8.770;2023-02-12T05:24:00;21.25;;;9.27;;
36385;SDS011;24125;47.482;8.770;2023-02-12T05:26:34;19.67;;;9.77;;
36385;SDS011;24125;47.482;8.770;2023-02-12T05:29:07;21.50;;;10.20;;
36385;SDS011;24125;47.482;8.770;2023-02-12T05:31:40;22.20;;;9.95;;
36385;SDS011;24125;47.482;8.770;2023-02-12T05:34:13;20.75;;;9.98;;
36385;SDS011;24125;47.482;8.770;2023-02-12T05:36:46;19.30;;;8.85;;
36385;SDS011;24125;47.482;8.770;2023-02-12T05:39:19;21.50;;;9.98;;
36385;SDS011;24125;47.482;8.770;2023-02-12T05:41:54;21.67;;;9.65;;
36385;SDS011;24125;47.482;8.770;2023-02-12T05:44:27;21.50;;;9.43;;
36385;SDS011;24125;47.482;8.770;2023-02-12T05:47:00;19.25;;;9.32;;
36385;SDS011;24125;47.482;8.770;2023-02-12T05:49:33;23.45;;;10.32;;
36385;SDS011;24125;47.482;8.770;2023-02-12T05:52:06;23.52;;;10.63;;
36385;SDS011;24125;47.482;8.770;2023-02-12T05:54:39;23.38;;;10.43;;
36385;SDS011;24125;47.482;8.770;2023-02-12T05:57:13;18.13;;;9.10;;
36385;SDS011;24125;47.482;8.770;2023-02-12T05:59:46;20.80;;;9.75;;
36385;SDS011;24125;47.482;8.770;2023-02-12T06:02:19;19.98;;;10.02;;
36385;SDS011;24125;47.482;8.770;2023-02-12T06:04:52;20.92;;;10.07;;
36385;SDS011;24125;47.482;8.770;2023-02-12T06:07:25;19.40;;;8.82;;
36385;SDS011;24125;47.482;8.770;2023-02-12T06:09:58;21.40;;;10.20;;
36385;SDS011;24125;47.482;8.770;2023-02-12T06:12:32;21.23;;;9.55;;
36385;SDS011;24125;47.482;8.770;2023-02-12T06:15:06;20.52;;;9.88;;
36385;SDS011;24125;47.482;8.770;2023-02-12T06:17:39;18.35;;;9.20;;
36385;SDS011;24125;47.482;8.770;2023-02-12T06:20:12;21.98;;;9.80;;
36385;SDS011;24125;47.482;8.770;2023-02-12T06:22:45;25.20;;;10.13;;
36385;SDS011;24125;47.482;8.770;2023-02-12T06:25:18;20.42;;;9.55;;
36385;SDS011;24125;47.482;8.770;2023-02-12T06:27:53;19.67;;;9.57;;
36385;SDS011;24125;47.482;8.770;2023-02-12T06:30:26;20.98;;;9.50;;
36385;SDS011;24125;47.482;8.770;2023-02-12T06:32:59;24.02;;;10.25;;
36385;SDS011;24125;47.482;8.770;2023-02-12T06:35:33;17.98;;;9.18;;
36385;SDS011;24125;47.482;8.770;2023-02-12T06:38:07;22.10;;;10.82;;
36385;SDS011;24125;47.482;8.770;2023-02-12T06:40:40;19.88;;;9.88;;
36385;SDS011;24125;47.482;8.770;2023-02-12T06:43:14;19.13;;;9.73;;
36385;SDS011;24125;47.482;8.770;2023-02-12T06:45:47;22.17;;;10.00;;
36385;SDS011;24125;47.482;8.770;2023-02-12T06:48:20;21.55;;;9.98;;
36385;SDS011;24125;47.482;8.770;2023-02-12T06:50:53;23.42;;;10.80;;
36385;SDS011;24125;47.482;8.770;2023-02-12T06:53:26;21.20;;;10.35;;
36385;SDS011;24125;47.482;8.770;2023-02-12T06:55:59;25.10;;;11.25;;
36385;SDS011;24125;47.482;8.770;2023-02-12T06:58:34;24.05;;;11.52;;
36385;SDS011;24125;47.482;8.770;2023-02-12T07:01:07;23.05;;;10.63;;
36385;SDS011;24125;47.482;8.770;2023-02-12T07:03:46;22.40;;;10.95;;
36385;SDS011;24125;47.482;8.770;2023-02-12T07:06:20;24.85;;;11.20;;
36385;SDS011;24125;47.482;8.770;2023-02-12T07:08:54;22.50;;;10.52;;
36385;SDS011;24125;47.482;8.770;2023-02-12T07:11:29;28.88;;;11.77;;
36385;SDS011;24125;47.482;8.770;2023-02-12T07:14:12;28.35;;;11.60;;
36385;SDS011;24125;47.482;8.770;2023-02-12T07:16:46;28.85;;;12.55;;
36385;SDS011;24125;47.482;8.770;2023-02-12T07:19:19;31.13;;;13.25;;
36385;SDS011;24125;47.482;8.770;2023-02-12T07:21:53;26.33;;;11.63;;
36385;SDS011;24125;47.482;8.770;2023-02-12T07:24:26;23.67;;;11.98;;
36385;SDS011;24125;47.482;8.770;2023-02-12T07:26:59;26.55;;;12.98;;
36385;SDS011;24125;47.482;8.770;2023-02-12T07:29:33;26.27;;;12.60;;
36385;SDS011;24125;47.482;8.770;2023-02-12T07:32:06;29.30;;;12.95;;
36385;SDS011;24125;47.482;8.770;2023-02-12T07:34:39;27.50;;;12.38;;
36385;SDS011;24125;47.482;8.770;2023-02-12T07:37:12;25.80;;;12.07;;
36385;SDS011;24125;47.482;8.770;2023-02-12T07:39:45;25.48;;;12.85;;
36385;SDS011;24125;47.482;8.770;2023-02-12T07:42:18;26.45;;;12.73;;
36385;SDS011;24125;47.482;8.770;2023-02-12T07:44:52;25.77;;;12.65;;
36385;SDS011;24125;47.482;8.770;2023-02-12T07:47:25;24.35;;;11.32;;
36385;SDS011;24125;47.482;8.770;2023-02-12T07:49:58;30.10;;;13.23;;
36385;SDS011;24125;47.482;8.770;2023-02-12T07:52:31;25.30;;;12.18;;
36385;SDS011;24125;47.482;8.770;2023-02-12T07:55:04;26.50;;;13.13;;
36385;SDS011;24125;47.482;8.770;2023-02-12T07:57:38;27.48;;;13.05;;
36385;SDS011;24125;47.482;8.770;2023-02-12T08:00:13;27.05;;;12.88;;
36385;SDS011;24125;47.482;8.770;2023-02-12T08:02:50;25.02;;;12.93;;
36385;SDS011;24125;47.482;8.770;2023-02-12T08:05:24;27.05;;;13.73;;
36385;SDS011;24125;47.482;8.770;2023-02-12T08:07:57;27.92;;;13.77;;
36385;SDS011;24125;47.482;8.770;2023-02-12T08:10:30;32.50;;;14.40;;
36385;SDS011;24125;47.482;8.770;2023-02-12T08:13:03;30.85;;;14.40;;
36385;SDS011;24125;47.482;8.770;2023-02-12T08:15:37;30.10;;;14.18;;
36385;SDS011;24125;47.482;8.770;2023-02-12T08:18:10;29.48;;;13.73;;
36385;SDS011;24125;47.482;8.770;2023-02-12T08:20:43;27.60;;;14.00;;
36385;SDS011;24125;47.482;8.770;2023-02-12T08:23:16;33.08;;;15.32;;
36385;SDS011;24125;47.482;8.770;2023-02-12T08:25:49;29.05;;;14.85;;
36385;SDS011;24125;47.482;8.770;2023-02-12T08:28:22;27.90;;;14.63;;
36385;SDS011;24125;47.482;8.770;2023-02-12T08:30:59;29.88;;;14.32;;
36385;SDS011;24125;47.482;8.770;2023-02-12T08:33:34;30.42;;;14.98;;
36385;SDS011;24125;47.482;8.770;2023-02-12T08:36:07;33.08;;;15.57;;
36385;SDS011;24125;47.482;8.770;2023-02-12T08:38:42;30.70;;;14.32;;
36385;SDS011;24125;47.482;8.770;2023-02-12T08:41:16;29.50;;;16.10;;
36385;SDS011;24125;47.482;8.770;2023-02-12T08:43:52;28.67;;;15.20;;
36385;SDS011;24125;47.482;8.770;2023-02-12T08:46:28;29.73;;;16.20;;
36385;SDS011;24125;47.482;8.770;2023-02-12T08:49:03;30.27;;;16.20;;
36385;SDS011;24125;47.482;8.770;2023-02-12T08:51:38;29.25;;;15.85;;
36385;SDS011;24125;47.482;8.770;2023-02-12T08:54:13;29.50;;;15.82;;
36385;SDS011;24125;47.482;8.770;2023-02-12T08:56:48;32.45;;;17.25;;
36385;SDS011;24125;47.482;8.770;2023-02-12T08:59:21;31.17;;;17.77;;
36385;SDS011;24125;47.482;8.770;2023-02-12T09:01:56;32.85;;;17.05;;
36385;SDS011;24125;47.482;8.770;2023-02-12T09:04:30;33.03;;;17.42;;
36385;SDS011;24125;47.482;8.770;2023-02-12T09:07:04;30.90;;;16.38;;
36385;SDS011;24125;47.482;8.770;2023-02-12T09:09:41;29.10;;;15.50;;
36385;SDS011;24125;47.482;8.770;2023-02-12T09:12:13;29.30;;;16.83;;
36385;SDS011;24125;47.482;8.770;2023-02-12T09:14:46;33.78;;;17.23;;
36385;SDS011;24125;47.482;8.770;2023-02-12T09:17:21;29.13;;;15.82;;
36385;SDS011;24125;47.482;8.770;2023-02-12T09:19:57;30.90;;;16.05;;
36385;SDS011;24125;47.482;8.770;2023-02-12T09:22:31;30.48;;;16.10;;
36385;SDS011;24125;47.482;8.770;2023-02-12T09:25:08;28.58;;;15.95;;
36385;SDS011;24125;47.482;8.770;2023-02-12T09:27:41;30.25;;;17.42;;
36385;SDS011;24125;47.482;8.770;2023-02-12T09:30:14;36.88;;;17.60;;
36385;SDS011;24125;47.482;8.770;2023-02-12T09:32:49;30.58;;;16.48;;
36385;SDS011;24125;47.482;8.770;2023-02-12T09:35:22;28.90;;;16.10;;
36385;SDS011;24125;47.482;8.770;2023-02-12T09:37:55;26.65;;;15.27;;
36385;SDS011;24125;47.482;8.770;2023-02-12T09:40:29;28.77;;;16.42;;
36385;SDS011;24125;47.482;8.770;2023-02-12T09:43:10;28.08;;;16.90;;
36385;SDS011;24125;47.482;8.770;2023-02-12T09:48:31;26.23;;;15.32;;
36385;SDS011;24125;47.482;8.770;2023-02-12T09:51:13;25.40;;;15.93;;
36385;SDS011;24125;47.482;8.770;2023-02-12T09:53:46;31.88;;;15.40;;
36385;SDS011;24125;47.482;8.770;2023-02-12T09:56:21;28.00;;;16.45;;
36385;SDS011;24125;47.482;8.770;2023-02-12T09:58:57;28.63;;;16.50;;
36385;SDS011;24125;47.482;8.770;2023-02-12T10:01:33;29.02;;;15.73;;
36385;SDS011;24125;47.482;8.770;2023-02-12T10:04:08;27.42;;;17.27;;
36385;SDS011;24125;47.482;8.770;2023-02-12T10:06:43;29.70;;;16.80;;
36385;SDS011;24125;47.482;8.770;2023-02-12T10:09:31;28.67;;;15.80;;
36385;SDS011;24125;47.482;8.770;2023-02-12T10:12:15;28.25;;;15.98;;
36385;SDS011;24125;47.482;8.770;2023-02-12T10:15:08;30.48;;;16.67;;
36385;SDS011;24125;47.482;8.770;2023-02-12T10:17:50;28.67;;;15.98;;
36385;SDS011;24125;47.482;8.770;2023-02-12T10:20:42;28.05;;;16.27;;
36385;SDS011;24125;47.482;8.770;2023-02-12T10:26:23;25.40;;;15.60;;
36385;SDS011;24125;47.482;8.770;2023-02-12T10:29:03;27.08;;;15.02;;
36385;SDS011;24125;47.482;8.770;2023-02-12T10:31:43;30.42;;;17.13;;
36385;SDS011;24125;47.482;8.770;2023-02-12T10:34:20;29.58;;;16.60;;
36385;SDS011;24125;47.482;8.770;2023-02-12T10:37:00;29.58;;;16.55;;
36385;SDS011;24125;47.482;8.770;2023-02-12T10:39:36;27.73;;;15.73;;
36385;SDS011;24125;47.482;8.770;2023-02-12T10:42:15;29.25;;;15.95;;
36385;SDS011;24125;47.482;8.770;2023-02-12T10:44:50;28.08;;;16.58;;
36385;SDS011;24125;47.482;8.770;2023-02-12T10:47:24;30.30;;;16.27;;
36385;SDS011;24125;47.482;8.770;2023-02-12T10:49:58;29.83;;;16.80;;
36385;SDS011;24125;47.482;8.770;2023-02-12T10:52:38;28.85;;;17.73;;
36385;SDS011;24125;47.482;8.770;2023-02-12T10:55:23;28.35;;;16.27;;
36385;SDS011;24125;47.482;8.770;2023-02-12T10:57:58;29.48;;;16.13;;
36385;SDS011;24125;47.482;8.770;2023-02-12T11:00:33;28.48;;;17.30;;
36385;SDS011;24125;47.482;8.770;2023-02-12T11:03:17;28.05;;;16.45;;
36385;SDS011;24125;47.482;8.770;2023-02-12T11:05:52;26.98;;;16.60;;
36385;SDS011;24125;47.482;8.770;2023-02-12T11:08:32;27.88;;;15.65;;
36385;SDS011;24125;47.482;8.770;2023-02-12T11:11:08;24.13;;;14.73;;
36385;SDS011;24125;47.482;8.770;2023-02-12T11:13:43;27.77;;;15.60;;
36385;SDS011;24125;47.482;8.770;2023-02-12T11:16:27;23.08;;;13.93;;
36385;SDS011;24125;47.482;8.770;2023-02-12T11:21:36;22.20;;;12.88;;
36385;SDS011;24125;47.482;8.770;2023-02-12T11:24:26;23.30;;;14.45;;
36385;SDS011;24125;47.482;8.770;2023-02-12T11:30:10;27.13;;;14.60;;
36385;SDS011;24125;47.482;8.770;2023-02-12T11:32:46;27.25;;;14.15;;
36385;SDS011;24125;47.482;8.770;2023-02-12T11:35:22;24.85;;;15.60;;
36385;SDS011;24125;47.482;8.770;2023-02-12T11:37:58;26.15;;;15.15;;
36385;SDS011;24125;47.482;8.770;2023-02-12T11:40:34;27.00;;;15.52;;
36385;SDS011;24125;47.482;8.770;2023-02-12T11:43:12;23.75;;;14.80;;
36385;SDS011;24125;47.482;8.770;2023-02-12T11:45:50;24.67;;;15.02;;
36385;SDS011;24125;47.482;8.770;2023-02-12T11:48:28;25.55;;;14.32;;
36385;SDS011;24125;47.482;8.770;2023-02-12T11:51:05;23.42;;;13.77;;
36385;SDS011;24125;47.482;8.770;2023-02-12T11:53:41;21.35;;;12.93;;
36385;SDS011;24125;47.482;8.770;2023-02-12T11:56:20;21.80;;;13.55;;
36385;SDS011;24125;47.482;8.770;2023-02-12T11:58:53;23.02;;;14.48;;
36385;SDS011;24125;47.482;8.770;2023-02-12T12:01:43;24.92;;;14.88;;
36385;SDS011;24125;47.482;8.770;2023-02-12T12:04:18;23.15;;;13.63;;
36385;SDS011;24125;47.482;8.770;2023-02-12T12:06:54;21.35;;;13.43;;
36385;SDS011;24125;47.482;8.770;2023-02-12T12:09:33;22.02;;;13.82;;
36385;SDS011;24125;47.482;8.770;2023-02-12T12:12:15;25.20;;;14.45;;
36385;SDS011;24125;47.482;8.770;2023-02-12T12:14:52;21.92;;;13.05;;
36385;SDS011;24125;47.482;8.770;2023-02-12T12:17:48;23.55;;;14.38;;
36385;SDS011;24125;47.482;8.770;2023-02-12T12:20:46;23.30;;;13.82;;
36385;SDS011;24125;47.482;8.770;2023-02-12T12:23:23;22.75;;;14.13;;
36385;SDS011;24125;47.482;8.770;2023-02-12T12:26:03;24.48;;;13.75;;
36385;SDS011;24125;47.482;8.770;2023-02-12T12:28:43;23.00;;;14.15;;
36385;SDS011;24125;47.482;8.770;2023-02-12T12:31:19;20.65;;;13.02;;
36385;SDS011;24125;47.482;8.770;2023-02-12T12:33:59;22.02;;;14.02;;
36385;SDS011;24125;47.482;8.770;2023-02-12T12:36:46;24.30;;;15.02;;
36385;SDS011;24125;47.482;8.770;2023-02-12T12:39:39;24.67;;;14.40;;
36385;SDS011;24125;47.482;8.770;2023-02-12T12:51:52;20.88;;;13.02;;
36385;SDS011;24125;47.482;8.770;2023-02-12T12:54:40;18.35;;;12.23;;
36385;SDS011;24125;47.482;8.770;2023-02-12T12:57:27;21.67;;;12.77;;
36385;SDS011;24125;47.482;8.770;2023-02-12T13:00:15;23.33;;;14.07;;
36385;SDS011;24125;47.482;8.770;2023-02-12T13:06:28;19.90;;;11.93;;
36385;SDS011;24125;47.482;8.770;2023-02-12T13:09:28;17.52;;;11.02;;
36385;SDS011;24125;47.482;8.770;2023-02-12T13:15:28;20.05;;;11.52;;
36385;SDS011;24125;47.482;8.770;2023-02-12T13:18:17;17.98;;;11.73;;
36385;SDS011;24125;47.482;8.770;2023-02-12T13:21:02;19.40;;;11.95;;
36385;SDS011;24125;47.482;8.770;2023-02-12T13:23:42;17.52;;;11.10;;
36385;SDS011;24125;47.482;8.770;2023-02-12T13:26:22;20.10;;;11.52;;
36385;SDS011;24125;47.482;8.770;2023-02-12T13:29:03;18.52;;;10.88;;
36385;SDS011;24125;47.482;8.770;2023-02-12T13:31:43;23.30;;;11.18;;
36385;SDS011;24125;47.482;8.770;2023-02-12T13:34:20;17.02;;;10.85;;
36385;SDS011;24125;47.482;8.770;2023-02-12T13:36:58;18.42;;;11.65;;
36385;SDS011;24125;47.482;8.770;2023-02-12T13:39:34;18.65;;;11.00;;
36385;SDS011;24125;47.482;8.770;2023-02-12T13:42:14;17.75;;;11.32;;
36385;SDS011;24125;47.482;8.770;2023-02-12T13:45:00;18.23;;;10.52;;
36385;SDS011;24125;47.482;8.770;2023-02-12T13:47:50;16.48;;;10.40;;
36385;SDS011;24125;47.482;8.770;2023-02-12T13:50:33;18.60;;;11.35;;
36385;SDS011;24125;47.482;8.770;2023-02-12T13:53:17;21.33;;;12.15;;
36385;SDS011;24125;47.482;8.770;2023-02-12T13:55:59;17.05;;;10.32;;
36385;SDS011;24125;47.482;8.770;2023-02-12T13:58:39;16.05;;;10.63;;
36385;SDS011;24125;47.482;8.770;2023-02-12T14:04:27;17.58;;;10.23;;
36385;SDS011;24125;47.482;8.770;2023-02-12T14:07:04;18.17;;;10.68;;
36385;SDS011;24125;47.482;8.770;2023-02-12T14:09:42;15.27;;;10.02;;
36385;SDS011;24125;47.482;8.770;2023-02-12T14:12:27;15.02;;;9.43;;
36385;SDS011;24125;47.482;8.770;2023-02-12T14:15:04;12.93;;;8.68;;
36385;SDS011;24125;47.482;8.770;2023-02-12T14:17:40;15.18;;;8.63;;
36385;SDS011;24125;47.482;8.770;2023-02-12T14:20:24;15.52;;;9.38;;
36385;SDS011;24125;47.482;8.770;2023-02-12T14:26:05;16.38;;;9.15;;
36385;SDS011;24125;47.482;8.770;2023-02-12T14:28:46;13.15;;;8.35;;
36385;SDS011;24125;47.482;8.770;2023-02-12T14:31:30;17.15;;;9.50;;
36385;SDS011;24125;47.482;8.770;2023-02-12T14:37:32;15.85;;;10.38;;
36385;SDS011;24125;47.482;8.770;2023-02-12T14:43:24;16.00;;;10.20;;
36385;SDS011;24125;47.482;8.770;2023-02-12T14:49:15;13.95;;;8.23;;
36385;SDS011;24125;47.482;8.770;2023-02-12T14:51:56;14.60;;;8.50;;
36385;SDS011;24125;47.482;8.770;2023-02-12T14:54:33;15.20;;;8.73;;
36385;SDS011;24125;47.482;8.770;2023-02-12T14:57:08;14.55;;;8.70;;
36385;SDS011;24125;47.482;8.770;2023-02-12T14:59:54;11.80;;;7.97;;
36385;SDS011;24125;47.482;8.770;2023-02-12T15:02:31;11.95;;;7.47;;
36385;SDS011;24125;47.482;8.770;2023-02-12T15:05:12;13.65;;;7.70;;
36385;SDS011;24125;47.482;8.770;2023-02-12T15:07:49;11.32;;;7.15;;
36385;SDS011;24125;47.482;8.770;2023-02-12T15:10:27;11.98;;;7.07;;
36385;SDS011;24125;47.482;8.770;2023-02-12T15:13:06;9.27;;;6.45;;
36385;SDS011;24125;47.482;8.770;2023-02-12T15:15:49;10.18;;;6.57;;
36385;SDS011;24125;47.482;8.770;2023-02-12T15:18:27;11.25;;;6.45;;
36385;SDS011;24125;47.482;8.770;2023-02-12T15:21:08;8.45;;;5.80;;
36385;SDS011;24125;47.482;8.770;2023-02-12T15:23:59;9.55;;;5.63;;
36385;SDS011;24125;47.482;8.770;2023-02-12T15:26:36;8.85;;;5.72;;
36385;SDS011;24125;47.482;8.770;2023-02-12T15:29:16;9.13;;;5.65;;
36385;SDS011;24125;47.482;8.770;2023-02-12T15:31:55;9.88;;;6.07;;
36385;SDS011;24125;47.482;8.770;2023-02-12T15:34:30;10.43;;;5.85;;
36385;SDS011;24125;47.482;8.770;2023-02-12T15:37:05;7.57;;;5.30;;
36385;SDS011;24125;47.482;8.770;2023-02-12T15:39:40;10.15;;;5.40;;
36385;SDS011;24125;47.482;8.770;2023-02-12T15:42:22;9.10;;;5.97;;
36385;SDS011;24125;47.482;8.770;2023-02-12T15:45:02;7.65;;;4.57;;
36385;SDS011;24125;47.482;8.770;2023-02-12T15:47:55;8.63;;;5.80;;
36385;SDS011;24125;47.482;8.770;2023-02-12T15:50:32;8.30;;;5.25;;
36385;SDS011;24125;47.482;8.770;2023-02-12T15:53:07;8.20;;;5.40;;
36385;SDS011;24125;47.482;8.770;2023-02-12T15:55:41;9.73;;;6.10;;
36385;SDS011;24125;47.482;8.770;2023-02-12T15:58:18;7.30;;;4.88;;
36385;SDS011;24125;47.482;8.770;2023-02-12T16:00:55;7.03;;;4.90;;
36385;SDS011;24125;47.482;8.770;2023-02-12T16:03:35;7.50;;;4.82;;
36385;SDS011;24125;47.482;8.770;2023-02-12T16:06:10;9.13;;;5.35;;
36385;SDS011;24125;47.482;8.770;2023-02-12T16:08:47;7.50;;;4.55;;
36385;SDS011;24125;47.482;8.770;2023-02-12T16:11:21;7.57;;;4.85;;
36385;SDS011;24125;47.482;8.770;2023-02-12T16:13:58;8.20;;;4.78;;
36385;SDS011;24125;47.482;8.770;2023-02-12T16:16:38;7.95;;;4.90;;
36385;SDS011;24125;47.482;8.770;2023-02-12T16:19:18;6.63;;;4.32;;